Newton, Texas
Current Conditions -  °F | °C
As of 4:55 PM on Friday 28 Nov 2014 (Local Time) from KJAS Reporting Station
Broken Clouds Broken Clouds  
Wind Chill: 63°   Ceiling: 5000
Heat Index: 63°   Visibility: 10mi
Dew Point: 53°   Wind: 5mph
Humidity: 69%   Direction: 160°SSE
Pressure: 30.22"   Gusts: NA
Location:  30.85°N, 93.76°W
Report Text: KJAS 282255Z AUTO 16004KT 10SM BKN050 17/11 A3022 RMK AO2 T01720114
Loading
Personal Weather Stations






























Interactive Weather Map New forecast layout! Learn more

10-Day Weather Forecast

Advertisements
Track Severe Weather on mobile